createdAt,value
2019-02-05T00:02:20.910Z,4.30
2019-02-05T00:04:49.139Z,4.47
2019-02-05T00:07:17.299Z,5.10
2019-02-05T00:09:45.657Z,4.47
2019-02-05T00:12:13.904Z,4.20
2019-02-05T00:14:42.095Z,4.17
2019-02-05T00:17:10.001Z,4.00
2019-02-05T00:19:38.290Z,4.13
2019-02-05T00:22:06.465Z,4.90
2019-02-05T00:24:34.737Z,3.87
2019-02-05T00:27:03.116Z,4.47
2019-02-05T00:29:31.054Z,4.30
2019-02-05T00:31:58.958Z,3.80
2019-02-05T00:34:27.109Z,4.23
2019-02-05T00:36:54.837Z,4.20
2019-02-05T00:39:22.992Z,4.40
2019-02-05T00:41:50.912Z,4.17
2019-02-05T00:44:18.894Z,4.03
2019-02-05T00:46:46.548Z,4.50
2019-02-05T00:49:14.492Z,4.60
2019-02-05T00:51:42.157Z,4.30
2019-02-05T00:54:09.816Z,4.40
2019-02-05T00:56:37.786Z,4.40
2019-02-05T00:59:06.122Z,4.33
2019-02-05T01:01:33.785Z,3.90
2019-02-05T01:04:04.013Z,4.30
2019-02-05T01:06:31.961Z,4.40
2019-02-05T01:08:59.617Z,3.90
2019-02-05T01:11:27.272Z,3.93
2019-02-05T01:13:55.209Z,4.40
2019-02-05T01:16:23.036Z,4.30
2019-02-05T01:18:51.017Z,4.70
2019-02-05T01:21:18.940Z,4.37
2019-02-05T01:23:46.838Z,4.43
2019-02-05T01:26:14.757Z,3.83
2019-02-05T01:28:42.411Z,4.03
2019-02-05T01:31:10.868Z,4.57
2019-02-05T01:33:38.777Z,3.77
2019-02-05T01:36:06.978Z,3.90
2019-02-05T01:38:34.885Z,4.47
2019-02-05T01:41:02.717Z,4.23
2019-02-05T01:43:30.440Z,4.30
2019-02-05T01:45:58.417Z,4.53
2019-02-05T01:48:26.617Z,4.70
2019-02-05T01:50:54.685Z,4.57
2019-02-05T01:53:22.622Z,4.67
2019-02-05T01:55:50.370Z,4.90
2019-02-05T01:58:18.117Z,4.23
2019-02-05T02:00:46.040Z,4.50
2019-02-05T02:03:14.256Z,4.03
2019-02-05T02:05:42.208Z,3.67
2019-02-05T02:08:09.865Z,4.53
2019-02-05T02:10:38.036Z,4.57
2019-02-05T02:13:06.246Z,4.57
2019-02-05T02:15:34.134Z,4.10
2019-02-05T02:18:02.297Z,4.30
2019-02-05T02:20:30.542Z,4.30
2019-02-05T02:22:58.671Z,4.53
2019-02-05T02:25:26.678Z,4.30
2019-02-05T02:27:54.943Z,4.20
2019-02-05T02:30:27.103Z,4.70
2019-02-05T02:32:55.269Z,4.50
2019-02-05T02:35:22.925Z,3.97
2019-02-05T02:37:51.741Z,4.13
2019-02-05T02:40:19.685Z,4.27
2019-02-05T02:42:47.396Z,4.10
2019-02-05T02:45:15.260Z,4.50
2019-02-05T02:47:43.182Z,4.10
2019-02-05T02:50:12.017Z,3.93
2019-02-05T02:52:39.730Z,3.83
2019-02-05T02:55:07.929Z,4.50
2019-02-05T02:57:36.116Z,4.23
2019-02-05T03:00:05.895Z,3.90
2019-02-05T03:02:33.866Z,3.70
2019-02-05T03:05:02.070Z,3.80
2019-02-05T03:07:29.738Z,3.83
2019-02-05T03:09:57.498Z,3.73
2019-02-05T03:12:25.667Z,3.90
2019-02-05T03:14:53.330Z,4.40
2019-02-05T03:17:21.241Z,4.13
2019-02-05T03:19:49.151Z,3.80
2019-02-05T03:22:16.824Z,3.70
2019-02-05T03:24:44.481Z,4.20
2019-02-05T03:27:18.110Z,3.93
2019-02-05T03:29:42.654Z,3.63
2019-02-05T03:32:10.784Z,3.80
2019-02-05T03:34:38.514Z,3.90
2019-02-05T03:37:06.638Z,3.73
2019-02-05T03:39:34.896Z,3.83
2019-02-05T03:42:03.193Z,3.80
2019-02-05T03:44:31.445Z,3.50
2019-02-05T03:46:59.551Z,4.00
2019-02-05T03:49:28.065Z,3.63
2019-02-05T03:52:05.029Z,3.50
2019-02-05T03:54:39.715Z,4.03
2019-02-05T03:57:31.242Z,4.03
2019-02-05T04:00:30.581Z,3.60
2019-02-05T04:03:06.340Z,3.73
2019-02-05T04:06:05.021Z,3.33
2019-02-05T04:08:43.514Z,4.00
2019-02-05T04:11:25.168Z,3.37
2019-02-05T04:14:11.301Z,3.77
2019-02-05T04:16:48.062Z,3.63
2019-02-05T04:19:43.675Z,3.67
2019-02-05T04:22:29.344Z,3.90
2019-02-05T04:25:16.449Z,3.97
2019-02-05T04:27:58.494Z,4.27
2019-02-05T04:30:36.410Z,3.93
2019-02-05T04:33:17.655Z,3.90
2019-02-05T04:35:58.125Z,3.90
2019-02-05T04:38:44.572Z,4.10
2019-02-05T04:41:34.676Z,4.40
2019-02-05T04:44:27.577Z,4.17
2019-02-05T04:47:14.365Z,3.87
2019-02-05T04:50:01.165Z,4.17
2019-02-05T04:53:00.127Z,4.17
2019-02-05T04:55:34.032Z,4.03
2019-02-05T04:58:17.417Z,4.00
2019-02-05T05:01:05.124Z,4.13
2019-02-05T05:03:54.893Z,4.20
2019-02-05T05:06:45.326Z,4.40
2019-02-05T05:09:47.557Z,4.50
2019-02-05T05:12:16.121Z,4.30
2019-02-05T05:14:44.582Z,4.37
2019-02-05T05:17:12.266Z,4.23
2019-02-05T05:19:40.527Z,3.97
2019-02-05T05:22:08.833Z,3.90
2019-02-05T05:24:37.386Z,4.50
2019-02-05T05:27:05.597Z,4.03
2019-02-05T05:29:34.198Z,4.40
2019-02-05T05:32:02.220Z,4.53
2019-02-05T05:34:30.459Z,4.50
2019-02-05T05:36:57.341Z,4.60
2019-02-05T05:39:25.243Z,4.60
2019-02-05T05:41:53.148Z,4.37
2019-02-05T05:44:21.050Z,4.17
2019-02-05T05:46:49.102Z,4.43
2019-02-05T05:49:17.319Z,4.70
2019-02-05T05:51:45.257Z,4.83
2019-02-05T05:54:13.694Z,4.40
2019-02-05T05:56:41.605Z,4.53
2019-02-05T05:59:09.535Z,4.33
2019-02-05T06:01:37.707Z,4.97
2019-02-05T06:04:06.550Z,4.60
2019-02-05T06:06:34.742Z,4.60
2019-02-05T06:09:05.222Z,4.50
2019-02-05T06:11:33.703Z,5.40
2019-02-05T06:14:01.892Z,4.73
2019-02-05T06:16:29.554Z,4.90
2019-02-05T06:18:57.558Z,4.73
2019-02-05T06:21:25.745Z,4.73
2019-02-05T06:23:53.941Z,4.43
2019-02-05T06:26:22.125Z,5.27
2019-02-05T06:28:49.789Z,4.80
2019-02-05T06:31:17.431Z,4.90
2019-02-05T06:33:45.109Z,5.40
2019-02-05T06:36:12.752Z,5.07
2019-02-05T06:38:40.742Z,5.07
2019-02-05T06:41:08.653Z,4.80
2019-02-05T06:43:37.225Z,4.80
2019-02-05T06:46:05.196Z,5.00
2019-02-05T06:48:33.165Z,5.27
2019-02-05T06:51:01.362Z,5.23
2019-02-05T06:53:29.379Z,4.87
2019-02-05T06:55:57.126Z,4.90
2019-02-05T06:58:25.077Z,4.87
2019-02-05T07:00:53.288Z,5.13
2019-02-05T07:03:21.334Z,5.37
2019-02-05T07:05:49.122Z,5.27
2019-02-05T07:08:16.791Z,4.27
2019-02-05T07:10:44.706Z,4.60
2019-02-05T07:13:13.228Z,5.30
2019-02-05T07:15:41.459Z,4.83
2019-02-05T07:18:09.361Z,5.83
2019-02-05T07:20:37.821Z,5.43
2019-02-05T07:23:05.731Z,5.20
2019-02-05T07:25:33.785Z,5.10
2019-02-05T07:28:01.990Z,4.87
2019-02-05T07:30:29.899Z,4.73
2019-02-05T07:32:57.538Z,5.27
2019-02-05T07:35:25.545Z,5.30
2019-02-05T07:37:53.827Z,5.43
2019-02-05T07:40:21.801Z,5.50
2019-02-05T07:42:49.785Z,5.90
2019-02-05T07:45:18.385Z,4.80
2019-02-05T07:47:46.062Z,5.00
2019-02-05T07:50:15.623Z,5.00
2019-02-05T07:52:43.573Z,5.50
2019-02-05T07:55:11.261Z,5.00
2019-02-05T07:57:39.694Z,5.80
2019-02-05T08:00:10.334Z,5.40
2019-02-05T08:02:38.253Z,5.57
2019-02-05T08:05:07.233Z,5.47
2019-02-05T08:07:38.614Z,5.63
2019-02-05T08:10:09.294Z,5.33
2019-02-05T08:12:40.381Z,6.00
2019-02-05T08:15:09.608Z,5.30
2019-02-05T08:17:38.425Z,5.90
2019-02-05T08:20:06.950Z,5.97
2019-02-05T08:22:34.866Z,5.57
2019-02-05T08:25:02.761Z,5.37
2019-02-05T08:27:31.177Z,5.63
2019-02-05T08:29:59.358Z,6.30
2019-02-05T08:32:27.586Z,5.60
2019-02-05T08:34:56.165Z,5.77
2019-02-05T08:37:24.610Z,6.17
2019-02-05T08:39:52.530Z,5.43
2019-02-05T08:42:20.170Z,5.80
2019-02-05T08:44:48.070Z,5.47
2019-02-05T08:47:15.785Z,6.07
2019-02-05T08:49:44.005Z,5.67
2019-02-05T08:52:11.902Z,5.87
2019-02-05T08:54:40.202Z,5.77
2019-02-05T08:57:07.861Z,5.67
2019-02-05T08:59:35.781Z,5.40
2019-02-05T09:02:03.941Z,5.70
2019-02-05T09:04:32.130Z,6.20
2019-02-05T09:07:00.115Z,6.47
2019-02-05T09:09:28.381Z,6.10
2019-02-05T09:11:56.373Z,6.63
2019-02-05T09:14:24.341Z,6.53
2019-02-05T09:16:52.297Z,6.40
2019-02-05T09:19:20.550Z,5.87
2019-02-05T09:21:48.729Z,6.50
2019-02-05T09:24:16.650Z,6.53
2019-02-05T09:26:44.842Z,6.10
2019-02-05T09:29:12.485Z,7.03
2019-02-05T09:31:41.482Z,6.50
2019-02-05T09:34:09.122Z,6.50
2019-02-05T09:36:36.777Z,6.70
2019-02-05T09:39:06.445Z,7.40
2019-02-05T09:41:34.412Z,6.83
2019-02-05T09:44:07.213Z,7.37
2019-02-05T09:46:34.953Z,7.23
2019-02-05T09:49:03.591Z,7.33
2019-02-05T09:51:32.566Z,7.30
2019-02-05T09:54:00.533Z,7.27
2019-02-05T09:56:28.297Z,7.00
2019-02-05T09:58:56.229Z,6.47
2019-02-05T10:01:23.874Z,6.20
2019-02-05T10:03:51.791Z,7.80
2019-02-05T10:06:20.015Z,6.57
2019-02-05T10:08:47.942Z,8.00
2019-02-05T10:11:16.179Z,7.70
2019-02-05T10:13:44.110Z,7.17
2019-02-05T10:16:11.861Z,7.00
2019-02-05T10:18:40.176Z,6.77
2019-02-05T10:21:08.253Z,6.87
2019-02-05T10:23:36.540Z,7.27
2019-02-05T10:26:04.989Z,6.33
2019-02-05T10:28:32.961Z,7.50
2019-02-05T10:31:01.206Z,7.13
2019-02-05T10:33:29.381Z,7.63
2019-02-05T10:35:57.190Z,7.53
2019-02-05T10:38:25.203Z,7.67
2019-02-05T10:40:53.354Z,7.20
2019-02-05T10:43:21.158Z,7.03
2019-02-05T10:45:49.160Z,7.20
2019-02-05T10:48:16.870Z,6.77
2019-02-05T10:50:44.790Z,7.50
2019-02-05T10:53:12.449Z,6.97
2019-02-05T10:55:40.244Z,7.10
2019-02-05T10:58:08.565Z,7.20
2019-02-05T11:00:36.644Z,8.10
2019-02-05T11:03:05.846Z,7.50
2019-02-05T11:05:33.829Z,7.37
2019-02-05T11:08:01.489Z,7.07
2019-02-05T11:10:29.149Z,7.53
2019-02-05T11:12:56.945Z,7.40
2019-02-05T11:15:26.091Z,7.00
2019-02-05T11:17:54.010Z,7.37
2019-02-05T11:20:22.897Z,7.03
2019-02-05T11:22:51.095Z,6.90
2019-02-05T11:25:18.938Z,7.73
2019-02-05T11:27:46.855Z,7.80
2019-02-05T11:30:20.198Z,7.00
2019-02-05T11:32:46.381Z,7.57
2019-02-05T11:35:14.293Z,6.60
2019-02-05T11:37:41.959Z,6.80
2019-02-05T11:40:11.187Z,7.20
2019-02-05T11:42:39.375Z,6.43
2019-02-05T11:45:08.145Z,6.87
2019-02-05T11:47:35.859Z,7.00
2019-02-05T11:50:05.411Z,7.33
2019-02-05T11:52:33.319Z,6.60
2019-02-05T11:55:01.042Z,7.07
2019-02-05T11:57:29.562Z,6.10
2019-02-05T11:59:57.589Z,6.10
2019-02-05T12:02:25.326Z,7.80
2019-02-05T12:04:53.487Z,6.00
2019-02-05T12:07:21.734Z,7.07
2019-02-05T12:09:49.385Z,6.37
2019-02-05T12:12:17.429Z,7.50
2019-02-05T12:14:45.350Z,6.77
2019-02-05T12:17:14.122Z,6.43
2019-02-05T12:19:42.290Z,6.67
2019-02-05T12:22:10.346Z,7.10
2019-02-05T12:24:38.871Z,6.83
2019-02-05T12:27:06.854Z,7.03
2019-02-05T12:29:34.774Z,6.40
2019-02-05T12:32:02.766Z,6.93
2019-02-05T12:34:30.677Z,7.40
2019-02-05T12:37:01.325Z,8.10
2019-02-05T12:39:29.059Z,7.00
2019-02-05T12:41:57.225Z,6.90
2019-02-05T12:44:24.884Z,7.40
2019-02-05T12:46:52.810Z,6.87
2019-02-05T12:49:20.497Z,7.57
2019-02-05T12:51:48.189Z,7.30
2019-02-05T12:54:15.975Z,7.30
2019-02-05T12:56:43.683Z,6.60
2019-02-05T12:59:11.440Z,7.00
2019-02-05T13:01:39.142Z,7.47
2019-02-05T13:04:07.186Z,7.07
2019-02-05T13:06:34.861Z,6.57
2019-02-05T13:09:04.829Z,6.23
2019-02-05T13:11:32.462Z,6.77
2019-02-05T13:14:00.696Z,6.23
2019-02-05T13:16:28.409Z,6.33
2019-02-05T13:18:56.645Z,6.90
2019-02-05T13:21:24.553Z,7.67
2019-02-05T13:23:52.742Z,7.97
2019-02-05T13:26:21.173Z,7.70
2019-02-05T13:28:49.102Z,7.60
2019-02-05T13:31:17.101Z,8.10
2019-02-05T13:33:44.883Z,7.70
2019-02-05T13:36:12.564Z,7.87
2019-02-05T13:38:40.486Z,7.70
2019-02-05T13:41:08.216Z,8.07
2019-02-05T13:43:36.299Z,6.67
2019-02-05T13:46:04.740Z,7.43
2019-02-05T13:48:32.910Z,7.60
2019-02-05T13:51:00.565Z,7.50
2019-02-05T13:53:28.506Z,7.33
2019-02-05T13:55:56.407Z,7.00
2019-02-05T13:58:24.635Z,6.70
2019-02-05T14:00:53.398Z,7.13
2019-02-05T14:03:38.609Z,7.00
2019-02-05T14:06:06.848Z,7.37
2019-02-05T14:08:34.802Z,6.87
2019-02-05T14:11:02.702Z,7.47
2019-02-05T14:13:31.403Z,6.83
2019-02-05T14:15:59.322Z,7.00
2019-02-05T14:18:27.147Z,7.53
2019-02-05T14:20:55.435Z,6.80
2019-02-05T14:23:23.692Z,7.57
2019-02-05T14:25:51.611Z,7.67
2019-02-05T14:28:19.339Z,7.40
2019-02-05T14:30:48.610Z,7.83
2019-02-05T14:33:16.807Z,6.73
2019-02-05T14:35:44.459Z,7.00
2019-02-05T14:38:12.829Z,10.17
2019-02-05T14:40:41.006Z,6.90
2019-02-05T14:43:08.914Z,6.80
2019-02-05T14:45:37.341Z,7.10
2019-02-05T14:48:06.030Z,7.07
2019-02-05T14:50:33.952Z,7.30
2019-02-05T14:53:01.988Z,6.67
2019-02-05T14:55:29.956Z,7.20
2019-02-05T14:57:58.446Z,7.60
2019-02-05T15:00:30.209Z,6.97
2019-02-05T15:02:58.587Z,6.70
2019-02-05T15:05:27.057Z,6.80
2019-02-05T15:07:54.997Z,7.00
2019-02-05T15:10:22.981Z,6.87
2019-02-05T15:12:51.117Z,7.30
2019-02-05T15:15:19.108Z,6.80
2019-02-05T15:17:47.461Z,5.90
2019-02-05T15:20:16.638Z,6.73
2019-02-05T15:22:44.545Z,5.90
2019-02-05T15:25:13.189Z,7.00
2019-02-05T15:27:41.402Z,6.37
2019-02-05T15:30:11.377Z,6.03
2019-02-05T15:32:58.431Z,6.30
2019-02-05T15:35:26.430Z,6.83
2019-02-05T15:37:54.867Z,6.43
2019-02-05T15:40:22.841Z,6.50
2019-02-05T15:42:50.491Z,6.43
2019-02-05T15:45:18.749Z,6.10
2019-02-05T15:47:46.405Z,6.63
2019-02-05T15:50:14.455Z,6.13
2019-02-05T15:52:42.242Z,6.17
2019-02-05T15:55:10.037Z,8.37
2019-02-05T15:57:38.274Z,11.00
2019-02-05T16:00:06.990Z,7.23
2019-02-05T16:02:35.039Z,7.00
2019-02-05T16:05:03.270Z,6.73
2019-02-05T16:07:31.419Z,7.10
2019-02-05T16:09:59.350Z,7.10
2019-02-05T16:12:27.242Z,7.70
2019-02-05T16:14:54.890Z,6.30
2019-02-05T16:17:22.601Z,6.47
2019-02-05T16:19:51.092Z,7.37
2019-02-05T16:22:19.323Z,6.70
2019-02-05T16:24:47.306Z,7.10
2019-02-05T16:27:15.497Z,7.07
2019-02-05T16:29:43.930Z,6.70
2019-02-05T16:32:17.640Z,6.13
2019-02-05T16:34:41.324Z,6.53
2019-02-05T16:37:09.804Z,6.83
2019-02-05T16:39:38.028Z,6.90
2019-02-05T16:42:06.582Z,7.13
2019-02-05T16:44:34.326Z,7.43
2019-02-05T16:47:02.251Z,6.53
2019-02-05T16:49:29.898Z,7.10
2019-02-05T16:51:57.623Z,6.73
2019-02-05T16:54:25.299Z,6.80
2019-02-05T16:56:53.522Z,6.50
2019-02-05T16:59:21.489Z,7.40
2019-02-05T17:01:49.194Z,6.63
2019-02-05T17:04:17.389Z,6.80
2019-02-05T17:06:45.564Z,7.10
2019-02-05T17:09:14.555Z,6.70
2019-02-05T17:11:42.809Z,6.37
2019-02-05T17:14:10.716Z,6.73
2019-02-05T17:16:38.665Z,6.40
2019-02-05T17:19:06.312Z,5.80
2019-02-05T17:21:34.085Z,6.20
2019-02-05T17:24:02.169Z,6.10
2019-02-05T17:26:30.701Z,6.57
2019-02-05T17:28:58.755Z,6.50
2019-02-05T17:31:26.982Z,6.53
2019-02-05T17:33:55.187Z,6.70
2019-02-05T17:36:23.122Z,6.70
2019-02-05T17:38:51.442Z,6.50
2019-02-05T17:41:19.729Z,7.00
2019-02-05T17:43:50.307Z,6.87
2019-02-05T17:46:17.478Z,7.60
2019-02-05T17:48:45.746Z,6.37
2019-02-05T17:51:13.494Z,6.70
2019-02-05T17:53:41.397Z,7.43
2019-02-05T17:56:09.598Z,6.97
2019-02-05T17:58:37.345Z,7.70
2019-02-05T18:01:15.988Z,6.60
2019-02-05T18:03:45.200Z,7.53
2019-02-05T18:06:13.136Z,7.40
2019-02-05T18:08:41.321Z,7.30
2019-02-05T18:11:09.094Z,7.63
2019-02-05T18:13:37.057Z,7.23
2019-02-05T18:16:12.703Z,8.10
2019-02-05T18:18:41.029Z,9.00
2019-02-05T18:21:09.262Z,8.57
2019-02-05T18:23:37.261Z,8.70
2019-02-05T18:26:05.210Z,7.00
2019-02-05T18:28:33.245Z,8.60
2019-02-05T18:31:01.111Z,8.47
2019-02-05T18:33:29.282Z,10.40
2019-02-05T18:35:57.537Z,8.73
2019-02-05T18:38:25.513Z,10.00
2019-02-05T18:40:53.662Z,8.73
2019-02-05T18:43:22.974Z,8.07
2019-02-05T18:45:51.174Z,8.23
2019-02-05T18:48:19.353Z,7.60
2019-02-05T18:50:47.273Z,8.60
2019-02-05T18:53:15.237Z,8.20
2019-02-05T18:55:42.950Z,8.40
2019-02-05T18:58:10.614Z,8.63
2019-02-05T19:00:39.371Z,9.27
2019-02-05T19:03:15.043Z,8.67
2019-02-05T19:05:37.528Z,9.50
2019-02-05T19:08:05.617Z,9.17
2019-02-05T19:10:33.882Z,10.50
2019-02-05T19:13:02.214Z,9.30
2019-02-05T19:15:30.877Z,9.13
2019-02-05T19:17:58.917Z,9.60
2019-02-05T19:20:27.509Z,8.63
2019-02-05T19:22:55.408Z,9.20
2019-02-05T19:25:48.521Z,8.83
2019-02-05T19:28:35.573Z,8.73
2019-02-05T19:31:08.006Z,8.90
2019-02-05T19:33:35.966Z,8.93
2019-02-05T19:36:04.212Z,9.20
2019-02-05T19:38:32.140Z,10.30
2019-02-05T19:41:00.437Z,10.13
2019-02-05T19:43:28.577Z,12.43
2019-02-05T19:46:06.536Z,10.30
2019-02-05T19:48:39.382Z,12.23
2019-02-05T19:51:07.049Z,18.10
2019-02-05T19:53:35.229Z,15.67
2019-02-05T19:56:03.544Z,17.87
2019-02-05T19:58:31.750Z,13.67
2019-02-05T20:00:59.405Z,12.37
2019-02-05T20:03:38.025Z,12.40
2019-02-05T20:05:56.556Z,11.57
2019-02-05T20:08:26.802Z,11.07
2019-02-05T20:10:54.286Z,10.77
2019-02-05T20:13:22.228Z,11.57
2019-02-05T20:15:51.327Z,11.47
2019-02-05T20:18:19.600Z,10.93
2019-02-05T20:20:50.032Z,10.10
2019-02-05T20:23:17.716Z,10.57
2019-02-05T20:25:45.881Z,9.90
2019-02-05T20:28:13.773Z,9.40
2019-02-05T20:30:41.659Z,9.40
2019-02-05T20:33:09.552Z,9.10
2019-02-05T20:35:37.199Z,9.20
2019-02-05T20:38:04.855Z,8.10
2019-02-05T20:40:32.922Z,9.63
2019-02-05T20:43:00.837Z,9.37
2019-02-05T20:45:28.522Z,9.00
2019-02-05T20:47:56.892Z,8.30
2019-02-05T20:50:24.886Z,9.30
2019-02-05T20:52:53.193Z,8.00
2019-02-05T20:55:21.225Z,8.30
2019-02-05T20:57:49.204Z,7.60
2019-02-05T21:00:18.610Z,7.80
2019-02-05T21:02:46.590Z,8.00
2019-02-05T21:05:14.858Z,8.27
2019-02-05T21:07:42.524Z,8.20
2019-02-05T21:10:11.810Z,8.93
2019-02-05T21:12:39.523Z,8.40
2019-02-05T21:15:09.284Z,8.53
2019-02-05T21:17:37.562Z,8.80
2019-02-05T21:20:06.182Z,9.33
2019-02-05T21:22:34.121Z,8.90
2019-02-05T21:25:02.332Z,8.90
2019-02-05T21:27:30.297Z,10.20
2019-02-05T21:29:58.324Z,9.87
2019-02-05T21:32:26.286Z,10.77
2019-02-05T21:34:54.569Z,10.17
2019-02-05T21:37:22.504Z,10.50
2019-02-05T21:40:01.749Z,9.90
2019-02-05T21:42:20.001Z,9.30
2019-02-05T21:44:47.928Z,8.87
2019-02-05T21:47:15.873Z,8.73
2019-02-05T21:49:44.315Z,8.63
2019-02-05T21:52:12.669Z,8.17
2019-02-05T21:54:40.850Z,7.87
2019-02-05T21:57:09.161Z,8.47
2019-02-05T21:59:36.815Z,7.33
2019-02-05T22:02:04.753Z,7.97
2019-02-05T22:04:32.842Z,7.47
2019-02-05T22:07:01.156Z,7.60
2019-02-05T22:09:28.912Z,7.87
2019-02-05T22:11:57.318Z,8.20
2019-02-05T22:14:25.323Z,7.30
2019-02-05T22:16:53.252Z,7.40
2019-02-05T22:19:23.188Z,7.40
2019-02-05T22:21:51.180Z,6.37
2019-02-05T22:24:18.906Z,7.20
2019-02-05T22:26:47.076Z,7.03
2019-02-05T22:29:15.010Z,7.57
2019-02-05T22:31:42.949Z,6.37
2019-02-05T22:34:11.009Z,6.67
2019-02-05T22:36:39.104Z,7.30
2019-02-05T22:39:08.235Z,6.27
2019-02-05T22:41:36.244Z,6.97
2019-02-05T22:44:04.516Z,6.63
2019-02-05T22:46:32.592Z,6.37
2019-02-05T22:49:00.782Z,6.50
2019-02-05T22:51:28.453Z,7.00
2019-02-05T22:53:56.401Z,6.80
2019-02-05T22:56:24.276Z,6.33
2019-02-05T22:58:52.731Z,6.60
2019-02-05T23:01:26.415Z,6.80
2019-02-05T23:03:56.909Z,6.43
2019-02-05T23:06:36.254Z,6.47
2019-02-05T23:09:23.632Z,6.83
2019-02-05T23:12:11.737Z,6.60
2019-02-05T23:14:39.926Z,6.20
2019-02-05T23:17:07.859Z,6.60
2019-02-05T23:19:35.798Z,5.90
2019-02-05T23:22:03.806Z,6.27
2019-02-05T23:24:31.728Z,6.00
2019-02-05T23:26:59.649Z,5.53
2019-02-05T23:29:27.372Z,6.33
2019-02-05T23:31:55.281Z,6.30
2019-02-05T23:34:22.957Z,5.70
2019-02-05T23:36:51.200Z,6.23
2019-02-05T23:39:20.910Z,6.30
2019-02-05T23:41:48.486Z,6.27
2019-02-05T23:44:16.693Z,6.60
2019-02-05T23:46:44.437Z,6.00
2019-02-05T23:49:12.658Z,6.47
2019-02-05T23:51:40.309Z,6.70
2019-02-05T23:54:08.258Z,6.53
2019-02-05T23:56:36.216Z,5.80
2019-02-05T23:59:04.730Z,5.83
